Vanguard, Canada
Current Conditions -  °F | °C
As of 8:00 PM on Tuesday 21 Oct 2014 (Local Time) from CYYN Reporting Station
Broken Clouds Broken Clouds  
Wind Chill: 54°   Ceiling: 19000
Heat Index: 54°   Visibility: 9mi
Dew Point: 39°   Wind: 16mph
Humidity: 58%   Direction: 260°W
Pressure: 29.63"   Gusts: NA
Location:  49.9°N, 107.3°W
Report Text: CYYN 220200Z AUTO 26014KT 9SM SCT085 SCT140 BKN190 12/04 A2963 RMK SLP044 DENSITY ALT 3200FT
Loading
Personal Weather Stations






























Interactive Weather Map New forecast layout! Learn more

10-Day Weather Forecast

Advertisements
Track Severe Weather on mobile